createdAt,value
2023-11-08T00:01:25.065Z,2.80
2023-11-08T00:03:52.320Z,2.60
2023-11-08T00:06:19.536Z,2.63
2023-11-08T00:08:49.772Z,2.58
2023-11-08T00:11:17.124Z,2.83
2023-11-08T00:13:45.317Z,2.58
2023-11-08T00:16:12.425Z,2.60
2023-11-08T00:18:39.587Z,2.70
2023-11-08T00:21:08.124Z,2.50
2023-11-08T00:23:35.385Z,2.70
2023-11-08T00:26:02.562Z,2.88
2023-11-08T00:28:29.674Z,2.38
2023-11-08T00:30:56.849Z,2.70
2023-11-08T00:33:25.915Z,2.83
2023-11-08T00:35:53.074Z,2.85
2023-11-08T00:38:20.151Z,2.35
2023-11-08T00:40:47.397Z,2.40
2023-11-08T00:43:15.157Z,2.72
2023-11-08T00:45:42.456Z,3.10
2023-11-08T00:48:09.774Z,2.58
2023-11-08T00:50:36.965Z,2.45
2023-11-08T00:53:05.161Z,2.50
2023-11-08T00:55:34.200Z,2.30
2023-11-08T00:58:01.438Z,2.42
2023-11-08T01:00:28.607Z,2.83
2023-11-08T01:02:55.818Z,2.83
2023-11-08T01:05:23.065Z,2.70
2023-11-08T01:07:50.196Z,2.90
2023-11-08T01:10:17.898Z,2.80
2023-11-08T01:12:46.064Z,2.90
2023-11-08T01:15:13.288Z,2.72
2023-11-08T01:17:40.847Z,3.20
2023-11-08T01:20:08.354Z,2.78
2023-11-08T01:22:35.490Z,2.72
2023-11-08T01:25:04.157Z,3.05
2023-11-08T01:27:32.251Z,2.75
2023-11-08T01:30:00.012Z,2.67
2023-11-08T01:32:27.679Z,2.95
2023-11-08T01:34:54.867Z,2.65
2023-11-08T01:37:22.008Z,2.85
2023-11-08T01:39:49.224Z,2.78
2023-11-08T01:42:19.767Z,3.33
2023-11-08T01:44:46.997Z,3.00
2023-11-08T01:47:17.089Z,2.67
2023-11-08T01:49:45.402Z,2.92
2023-11-08T01:52:13.051Z,2.88
2023-11-08T01:54:46.589Z,2.72
2023-11-08T01:57:14.120Z,2.80
2023-11-08T01:59:41.228Z,3.13
2023-11-08T02:02:08.897Z,2.85
2023-11-08T02:04:36.773Z,2.65
2023-11-08T02:07:04.215Z,3.35
2023-11-08T02:09:31.514Z,3.42
2023-11-08T02:12:01.799Z,3.28
2023-11-08T02:14:29.853Z,2.97
2023-11-08T02:16:57.720Z,3.40
2023-11-08T02:19:25.028Z,3.00
2023-11-08T02:22:12.104Z,3.35
2023-11-08T02:24:39.571Z,3.38
2023-11-08T02:27:07.190Z,3.13
2023-11-08T02:29:34.262Z,3.10
2023-11-08T02:32:01.390Z,3.10
2023-11-08T02:34:29.990Z,3.30
2023-11-08T02:36:57.143Z,4.07
2023-11-08T02:39:24.281Z,3.33
2023-11-08T02:41:51.879Z,3.20
2023-11-08T02:44:20.010Z,3.60
2023-11-08T02:46:47.149Z,3.45
2023-11-08T02:49:15.236Z,3.25
2023-11-08T02:51:44.682Z,3.50
2023-11-08T02:54:11.929Z,3.58
2023-11-08T02:56:41.464Z,3.60
2023-11-08T02:59:09.600Z,3.83
2023-11-08T03:01:38.610Z,3.40
2023-11-08T03:04:06.016Z,3.50
2023-11-08T03:06:33.635Z,3.70
2023-11-08T03:09:00.833Z,3.72
2023-11-08T03:11:27.918Z,4.03
2023-11-08T03:13:55.538Z,3.38
2023-11-08T03:16:22.663Z,3.70
2023-11-08T03:18:49.974Z,4.10
2023-11-08T03:21:17.143Z,3.90
2023-11-08T03:23:44.308Z,3.70
2023-11-08T03:26:11.657Z,3.88
2023-11-08T03:28:39.739Z,4.10
2023-11-08T03:31:08.392Z,3.83
2023-11-08T03:33:37.076Z,4.25
2023-11-08T03:36:05.412Z,4.30
2023-11-08T03:38:32.597Z,4.45
2023-11-08T03:40:59.747Z,4.13
2023-11-08T03:43:26.893Z,4.40
2023-11-08T03:45:54.204Z,4.10
2023-11-08T03:48:21.427Z,4.40
2023-11-08T03:50:48.530Z,4.38
2023-11-08T03:53:15.734Z,4.55
2023-11-08T03:55:44.196Z,4.07
2023-11-08T03:58:11.329Z,4.45
2023-11-08T04:00:38.465Z,5.35
2023-11-08T04:03:05.696Z,4.80
2023-11-08T04:05:32.841Z,4.55
2023-11-08T04:08:00.961Z,4.78
2023-11-08T04:10:28.093Z,4.78
2023-11-08T04:12:55.262Z,4.35
2023-11-08T04:15:22.475Z,4.90
2023-11-08T04:17:49.858Z,4.90
2023-11-08T04:20:17.809Z,4.50
2023-11-08T04:22:45.149Z,4.68
2023-11-08T04:25:12.892Z,4.82
2023-11-08T04:27:40.652Z,4.72
2023-11-08T04:30:08.432Z,4.65
2023-11-08T04:32:35.953Z,4.60
2023-11-08T04:35:03.258Z,5.38
2023-11-08T04:37:31.849Z,5.38
2023-11-08T04:39:59.029Z,5.28
2023-11-08T04:42:27.316Z,4.82
2023-11-08T04:44:54.404Z,4.72
2023-11-08T04:47:22.259Z,5.43
2023-11-08T04:49:51.151Z,4.97
2023-11-08T04:52:18.999Z,4.70
2023-11-08T04:54:54.096Z,5.30
2023-11-08T04:57:22.803Z,5.50
2023-11-08T04:59:50.805Z,4.88
2023-11-08T05:02:22.304Z,5.15
2023-11-08T05:04:50.917Z,6.18
2023-11-08T05:07:21.228Z,5.60
2023-11-08T05:09:50.140Z,5.53
2023-11-08T05:12:19.044Z,4.90
2023-11-08T05:14:47.214Z,5.07
2023-11-08T05:17:17.773Z,4.85
2023-11-08T05:19:45.768Z,5.00
2023-11-08T05:22:14.237Z,4.78
2023-11-08T05:24:41.493Z,4.38
2023-11-08T05:27:08.781Z,4.72
2023-11-08T05:29:36.830Z,4.78
2023-11-08T05:32:04.248Z,4.35
2023-11-08T05:34:31.458Z,5.35
2023-11-08T05:37:00.233Z,4.85
2023-11-08T05:39:28.806Z,4.90
2023-11-08T05:41:56.102Z,4.78
2023-11-08T05:44:23.369Z,4.43
2023-11-08T05:46:50.806Z,4.75
2023-11-08T05:49:18.536Z,4.95
2023-11-08T05:51:46.094Z,5.07
2023-11-08T05:54:13.333Z,4.80
2023-11-08T05:56:40.516Z,5.10
2023-11-08T05:59:07.833Z,4.85
2023-11-08T06:01:35.159Z,4.63
2023-11-08T06:04:02.875Z,5.00
2023-11-08T06:06:30.151Z,4.75
2023-11-08T06:08:57.457Z,4.60
2023-11-08T06:11:24.707Z,4.80
2023-11-08T06:13:51.863Z,4.68
2023-11-08T06:16:18.983Z,4.93
2023-11-08T06:18:46.317Z,4.32
2023-11-08T06:21:15.024Z,4.00
2023-11-08T06:23:44.658Z,4.90
2023-11-08T06:26:19.387Z,5.03
2023-11-08T06:28:47.306Z,4.28
2023-11-08T06:31:14.957Z,4.40
2023-11-08T06:33:42.433Z,4.50
2023-11-08T06:36:11.152Z,4.65
2023-11-08T06:38:38.363Z,4.22
2023-11-08T06:41:05.548Z,4.47
2023-11-08T06:43:32.902Z,4.57
2023-11-08T06:46:00.904Z,4.65
2023-11-08T06:48:28.355Z,3.92
2023-11-08T06:50:55.582Z,4.68
2023-11-08T06:55:51.418Z,4.30
2023-11-08T06:58:18.621Z,4.00
2023-11-08T07:00:45.830Z,4.90
2023-11-08T07:03:13.009Z,4.25
2023-11-08T07:05:40.184Z,4.28
2023-11-08T07:08:09.492Z,4.35
2023-11-08T07:10:37.198Z,4.18
2023-11-08T07:13:04.543Z,4.50
2023-11-08T07:15:32.126Z,4.35
2023-11-08T07:17:59.431Z,4.22
2023-11-08T07:20:26.642Z,4.38
2023-11-08T07:22:53.815Z,4.25
2023-11-08T07:25:20.894Z,4.63
2023-11-08T07:27:48.122Z,4.97
2023-11-08T07:30:18.095Z,4.95
2023-11-08T07:32:49.279Z,4.72
2023-11-08T07:35:16.533Z,4.40
2023-11-08T07:37:43.620Z,4.68
2023-11-08T07:40:14.196Z,4.07
2023-11-08T07:42:42.005Z,4.28
2023-11-08T07:45:10.527Z,4.55
2023-11-08T07:47:37.692Z,4.60
2023-11-08T07:50:07.520Z,4.07
2023-11-08T07:52:34.881Z,4.88
2023-11-08T07:55:02.297Z,4.63
2023-11-08T07:57:31.318Z,4.50
2023-11-08T07:59:58.453Z,4.38
2023-11-08T08:02:25.649Z,4.60
2023-11-08T08:04:55.430Z,5.30
2023-11-08T08:07:22.540Z,4.30
2023-11-08T08:09:49.675Z,4.78
2023-11-08T08:12:16.825Z,5.22
2023-11-08T08:14:45.201Z,4.68
2023-11-08T08:17:14.026Z,4.93
2023-11-08T08:19:42.185Z,4.70
2023-11-08T08:22:09.934Z,5.03
2023-11-08T08:24:37.188Z,5.28
2023-11-08T08:27:04.792Z,5.47
2023-11-08T08:29:32.112Z,5.40
2023-11-08T08:31:59.455Z,5.20
2023-11-08T08:34:31.323Z,5.40
2023-11-08T08:36:59.674Z,4.68
2023-11-08T08:39:29.645Z,5.47
2023-11-08T08:41:58.412Z,5.07
2023-11-08T08:44:26.311Z,5.28
2023-11-08T08:46:53.715Z,5.50
2023-11-08T08:49:23.018Z,5.68
2023-11-08T08:51:51.209Z,5.20
2023-11-08T08:54:22.695Z,4.53
2023-11-08T08:56:50.436Z,4.72
2023-11-08T08:59:17.845Z,4.90
2023-11-08T09:01:45.124Z,4.70
2023-11-08T09:04:13.252Z,5.55
2023-11-08T09:06:40.685Z,4.65
2023-11-08T09:09:13.615Z,4.88
2023-11-08T09:11:43.850Z,4.45
2023-11-08T09:14:11.101Z,5.38
2023-11-08T09:16:39.974Z,4.68
2023-11-08T09:19:09.878Z,4.90
2023-11-08T09:21:38.117Z,4.30
2023-11-08T09:24:08.076Z,4.88
2023-11-08T09:26:36.511Z,4.25
2023-11-08T09:29:04.467Z,4.40
2023-11-08T09:31:31.734Z,4.55
2023-11-08T09:33:58.965Z,4.28
2023-11-08T09:36:28.917Z,4.32
2023-11-08T09:38:56.590Z,4.50
2023-11-08T09:41:25.416Z,4.07
2023-11-08T09:43:53.826Z,4.43
2023-11-08T09:46:22.276Z,5.28
2023-11-08T09:48:55.770Z,4.25
2023-11-08T09:51:23.116Z,3.97
2023-11-08T09:53:51.270Z,4.07
2023-11-08T09:56:18.454Z,4.18
2023-11-08T09:58:49.370Z,4.50
2023-11-08T10:01:18.213Z,3.72
2023-11-08T10:03:46.981Z,3.90
2023-11-08T10:06:14.744Z,3.75
2023-11-08T10:08:42.132Z,3.70
2023-11-08T10:11:11.407Z,3.72
2023-11-08T10:13:56.752Z,3.80
2023-11-08T10:16:24.757Z,3.65
2023-11-08T10:19:36.530Z,3.58
2023-11-08T10:21:52.523Z,3.55
2023-11-08T10:24:19.881Z,4.38
2023-11-08T10:26:48.021Z,3.70
2023-11-08T10:29:15.390Z,3.97
2023-11-08T10:31:44.875Z,3.90
2023-11-08T10:34:14.457Z,3.85
2023-11-08T10:36:42.251Z,4.30
2023-11-08T10:39:21.120Z,4.20
2023-11-08T10:41:51.462Z,4.13
2023-11-08T10:44:25.989Z,3.80
2023-11-08T10:47:00.677Z,3.80
2023-11-08T10:49:27.979Z,3.35
2023-11-08T10:51:55.412Z,3.70
2023-11-08T10:54:22.903Z,3.22
2023-11-08T10:56:51.576Z,3.50
2023-11-08T10:59:19.403Z,3.25
2023-11-08T11:01:48.405Z,3.25
2023-11-08T11:04:21.003Z,3.53
2023-11-08T11:06:49.986Z,3.70
2023-11-08T11:09:18.436Z,3.53
2023-11-08T11:11:54.252Z,3.83
2023-11-08T11:14:35.040Z,3.83
2023-11-08T11:17:19.906Z,3.33
2023-11-08T11:19:50.824Z,3.20
2023-11-08T11:22:21.485Z,3.53
2023-11-08T11:24:49.945Z,3.15
2023-11-08T11:27:36.298Z,3.10
2023-11-08T11:30:16.159Z,3.65
2023-11-08T11:32:48.836Z,3.30
2023-11-08T11:35:50.692Z,3.45
2023-11-08T11:38:25.326Z,3.30
2023-11-08T11:41:30.925Z,3.80
2023-11-08T11:43:59.500Z,3.80
2023-11-08T11:46:28.473Z,3.55
2023-11-08T11:49:12.635Z,3.97
2023-11-08T11:51:44.225Z,3.63
2023-11-08T11:54:13.927Z,4.15
2023-11-08T11:56:42.530Z,4.00
2023-11-08T11:59:10.280Z,3.78
2023-11-08T12:01:37.488Z,3.83
2023-11-08T12:04:04.954Z,3.80
2023-11-08T12:06:33.423Z,3.47
2023-11-08T12:09:00.684Z,3.33
2023-11-08T12:11:27.797Z,3.20
2023-11-08T12:13:55.882Z,3.78
2023-11-08T12:16:23.666Z,4.50
2023-11-08T12:18:52.940Z,3.50
2023-11-08T12:21:21.014Z,3.50
2023-11-08T12:23:50.523Z,3.22
2023-11-08T12:26:18.114Z,3.47
2023-11-08T12:28:47.046Z,3.70
2023-11-08T12:31:19.496Z,3.63
2023-11-08T12:33:47.224Z,4.50
2023-11-08T12:36:14.668Z,3.45
2023-11-08T12:38:41.909Z,4.05
2023-11-08T12:41:09.606Z,3.83
2023-11-08T12:43:58.984Z,3.72
2023-11-08T12:46:37.856Z,3.78
2023-11-08T12:49:21.286Z,3.60
2023-11-08T12:51:48.560Z,4.68
2023-11-08T12:54:18.315Z,4.35
2023-11-08T12:56:47.436Z,4.00
2023-11-08T12:59:22.242Z,3.70
2023-11-08T13:01:51.516Z,3.65
2023-11-08T13:04:22.543Z,3.97
2023-11-08T13:06:50.707Z,3.80
2023-11-08T13:09:17.983Z,3.95
2023-11-08T13:11:45.108Z,4.25
2023-11-08T13:14:12.372Z,4.30
2023-11-08T13:16:40.512Z,3.22
2023-11-08T13:19:07.836Z,3.50
2023-11-08T13:21:35.113Z,4.03
2023-11-08T13:24:07.164Z,3.75
2023-11-08T13:26:36.477Z,3.90
2023-11-08T13:29:04.911Z,3.85
2023-11-08T13:31:32.275Z,3.55
2023-11-08T13:34:00.291Z,4.15
2023-11-08T13:36:29.073Z,4.00
2023-11-08T13:38:57.712Z,3.90
2023-11-08T13:41:26.243Z,4.00
2023-11-08T13:43:53.514Z,3.95
2023-11-08T13:46:20.745Z,4.40
2023-11-08T13:48:48.007Z,4.00
2023-11-08T13:51:15.376Z,3.90
2023-11-08T13:53:42.708Z,4.03
2023-11-08T13:56:10.217Z,3.97
2023-11-08T13:58:37.558Z,4.05
2023-11-08T14:01:11.835Z,4.10
2023-11-08T14:03:40.412Z,4.13
2023-11-08T14:06:09.094Z,3.92
2023-11-08T14:08:38.840Z,3.88
2023-11-08T14:11:06.549Z,4.40
2023-11-08T14:13:33.939Z,4.07
2023-11-08T14:16:01.346Z,4.50
2023-11-08T14:18:28.546Z,4.00
2023-11-08T14:20:57.786Z,4.45
2023-11-08T14:23:25.366Z,4.53
2023-11-08T14:25:54.927Z,4.95
2023-11-08T14:28:22.466Z,4.15
2023-11-08T14:30:51.577Z,4.78
2023-11-08T14:33:19.067Z,4.75
2023-11-08T14:35:46.431Z,4.47
2023-11-08T14:38:13.940Z,5.10
2023-11-08T14:40:42.056Z,4.60
2023-11-08T14:43:10.991Z,4.53
2023-11-08T14:45:38.390Z,4.22
2023-11-08T14:48:06.443Z,3.65
2023-11-08T14:50:34.995Z,3.65
2023-11-08T14:53:02.488Z,3.60
2023-11-08T14:55:29.690Z,3.78
2023-11-08T14:57:56.832Z,4.25
2023-11-08T15:00:25.216Z,4.65
2023-11-08T15:02:53.837Z,4.75
2023-11-08T15:05:21.504Z,5.25
2023-11-08T15:09:47.049Z,4.75
2023-11-08T15:10:38.149Z,4.90
2023-11-08T15:13:05.454Z,4.90
2023-11-08T15:15:32.617Z,4.78
2023-11-08T15:17:59.781Z,4.85
2023-11-08T15:20:27.059Z,5.40
2023-11-08T15:22:54.825Z,5.15
2023-11-08T15:25:22.076Z,4.65
2023-11-08T15:27:49.665Z,5.00
2023-11-08T15:30:16.981Z,4.65
2023-11-08T15:32:45.362Z,5.05
2023-11-08T15:35:13.409Z,4.30
2023-11-08T15:37:41.029Z,4.43
2023-11-08T15:40:09.031Z,4.82
2023-11-08T15:42:36.327Z,4.60
2023-11-08T15:45:04.017Z,4.63
2023-11-08T15:47:32.660Z,4.72
2023-11-08T15:49:59.791Z,4.85
2023-11-08T15:52:26.940Z,4.70
2023-11-08T15:54:54.112Z,4.78
2023-11-08T15:57:22.917Z,5.47
2023-11-08T15:59:50.102Z,5.13
2023-11-08T16:02:17.961Z,5.85
2023-11-08T16:04:45.263Z,5.00
2023-11-08T16:07:13.578Z,5.30
2023-11-08T16:09:42.192Z,5.00
2023-11-08T16:12:10.319Z,5.20
2023-11-08T16:14:38.018Z,5.50
2023-11-08T16:17:08.446Z,5.55
2023-11-08T16:19:35.985Z,5.40
2023-11-08T16:22:03.639Z,6.10
2023-11-08T16:24:30.868Z,5.45
2023-11-08T16:26:58.013Z,6.00
2023-11-08T16:29:50.576Z,5.00
2023-11-08T16:32:34.772Z,5.90
2023-11-08T16:35:01.165Z,5.63
2023-11-08T16:37:32.046Z,5.30
2023-11-08T16:39:59.451Z,4.90
2023-11-08T16:42:27.219Z,5.55
2023-11-08T16:44:54.429Z,5.40
2023-11-08T16:47:21.701Z,5.35
2023-11-08T16:49:52.056Z,5.53
2023-11-08T16:52:20.535Z,5.60
2023-11-08T16:54:47.695Z,5.30
2023-11-08T16:57:14.890Z,5.63
2023-11-08T16:59:42.914Z,5.63
2023-11-08T17:02:10.200Z,4.63
2023-11-08T17:04:40.863Z,5.60
2023-11-08T17:07:08.502Z,5.38
2023-11-08T17:09:39.503Z,5.53
2023-11-08T17:12:10.006Z,5.75
2023-11-08T17:14:37.762Z,5.95
2023-11-08T17:17:05.115Z,5.25
2023-11-08T17:19:32.324Z,5.35
2023-11-08T17:21:59.569Z,6.18
2023-11-08T17:24:27.075Z,5.40
2023-11-08T17:26:54.315Z,5.20
2023-11-08T17:29:21.463Z,5.35
2023-11-08T17:31:52.096Z,5.65
2023-11-08T17:34:19.583Z,6.35
2023-11-08T17:36:47.189Z,6.43
2023-11-08T17:39:14.503Z,5.53
2023-11-08T17:41:41.658Z,5.90
2023-11-08T17:44:08.948Z,6.10
2023-11-08T17:46:36.566Z,6.00
2023-11-08T17:49:05.224Z,5.63
2023-11-08T17:51:32.466Z,6.10
2023-11-08T17:54:00.840Z,5.45
2023-11-08T17:56:28.073Z,5.35
2023-11-08T17:58:55.264Z,5.85
2023-11-08T18:01:23.580Z,7.93
2023-11-08T18:03:51.148Z,6.50
2023-11-08T18:06:18.632Z,5.90
2023-11-08T18:08:46.730Z,6.18
2023-11-08T18:11:15.380Z,6.07
2023-11-08T18:13:47.245Z,6.10
2023-11-08T18:16:14.433Z,6.35
2023-11-08T18:18:43.024Z,6.50
2023-11-08T18:21:10.267Z,6.80
2023-11-08T18:23:37.563Z,6.60
2023-11-08T18:26:05.037Z,6.18
2023-11-08T18:28:32.198Z,6.28
2023-11-08T18:30:59.321Z,6.10
2023-11-08T18:33:27.631Z,6.57
2023-11-08T18:35:54.855Z,5.43
2023-11-08T18:38:23.587Z,5.80
2023-11-08T18:40:52.549Z,5.72
2023-11-08T18:43:25.653Z,5.43
2023-11-08T18:45:56.618Z,5.35
2023-11-08T18:48:27.556Z,6.20
2023-11-08T18:50:56.304Z,5.20
2023-11-08T18:53:25.149Z,5.80
2023-11-08T18:55:52.558Z,5.53
2023-11-08T18:58:24.103Z,5.40
2023-11-08T19:00:54.268Z,5.68
2023-11-08T19:03:21.554Z,5.57
2023-11-08T19:05:48.830Z,5.13
2023-11-08T19:08:16.828Z,5.75
2023-11-08T19:10:44.065Z,5.53
2023-11-08T19:13:11.273Z,5.70
2023-11-08T19:15:38.349Z,5.80
2023-11-08T19:18:07.059Z,5.78
2023-11-08T19:20:34.521Z,4.88
2023-11-08T19:23:08.278Z,5.18
2023-11-08T19:25:43.492Z,5.70
2023-11-08T19:28:13.542Z,5.20
2023-11-08T19:30:41.225Z,5.00
2023-11-08T19:33:08.490Z,5.50
2023-11-08T19:35:35.699Z,5.30
2023-11-08T19:38:02.855Z,5.43
2023-11-08T19:40:30.798Z,5.43
2023-11-08T19:42:57.944Z,5.57
2023-11-08T19:45:25.090Z,6.13
2023-11-08T19:47:52.241Z,6.70
2023-11-08T19:50:19.558Z,5.43
2023-11-08T19:52:47.488Z,5.65
2023-11-08T19:55:14.784Z,4.93
2023-11-08T19:57:43.581Z,5.05
2023-11-08T20:00:13.630Z,5.32
2023-11-08T20:02:41.369Z,5.35
2023-11-08T20:05:09.293Z,5.32
2023-11-08T20:07:36.568Z,5.22
2023-11-08T20:10:04.609Z,5.75
2023-11-08T20:12:31.889Z,5.40
2023-11-08T20:14:59.039Z,5.38
2023-11-08T20:17:26.783Z,5.40
2023-11-08T20:19:57.897Z,5.25
2023-11-08T20:22:25.144Z,5.60
2023-11-08T20:24:53.357Z,5.70
2023-11-08T20:27:21.408Z,5.53
2023-11-08T20:29:49.441Z,5.43
2023-11-08T20:32:18.180Z,5.40
2023-11-08T20:34:45.942Z,5.68
2023-11-08T20:37:14.553Z,5.68
2023-11-08T20:39:41.835Z,5.20
2023-11-08T20:42:09.012Z,5.78
2023-11-08T20:44:36.347Z,5.30
2023-11-08T20:47:03.617Z,5.20
2023-11-08T20:49:30.977Z,5.45
2023-11-08T20:51:58.407Z,5.50
2023-11-08T20:54:27.308Z,5.78
2023-11-08T20:56:54.651Z,5.60
2023-11-08T20:59:21.825Z,5.28
2023-11-08T21:01:49.418Z,5.47
2023-11-08T21:04:17.319Z,5.85
2023-11-08T21:06:46.942Z,5.53
2023-11-08T21:09:14.120Z,5.03
2023-11-08T21:11:41.203Z,5.80
2023-11-08T21:14:08.342Z,5.15
2023-11-08T21:16:35.373Z,5.68
2023-11-08T21:19:04.652Z,5.20
2023-11-08T21:21:32.386Z,5.25
2023-11-08T21:23:59.805Z,5.55
2023-11-08T21:26:27.162Z,5.32
2023-11-08T21:28:55.915Z,5.40
2023-11-08T21:31:23.414Z,5.30
2023-11-08T21:33:50.609Z,5.22
2023-11-08T21:36:17.818Z,5.63
2023-11-08T21:38:46.316Z,5.57
2023-11-08T21:41:13.574Z,5.35
2023-11-08T21:43:42.127Z,5.60
2023-11-08T21:46:10.117Z,5.03
2023-11-08T21:48:37.447Z,5.65
2023-11-08T21:51:04.773Z,4.85
2023-11-08T21:53:33.293Z,5.15
2023-11-08T21:56:01.213Z,5.28
2023-11-08T21:58:28.558Z,5.90
2023-11-08T22:00:56.155Z,5.82
2023-11-08T22:03:24.068Z,5.30
2023-11-08T22:05:51.835Z,5.40
2023-11-08T22:08:20.147Z,5.43
2023-11-08T22:10:48.002Z,5.50
2023-11-08T22:13:15.868Z,5.65
2023-11-08T22:15:43.223Z,5.50
2023-11-08T22:18:10.696Z,5.03
2023-11-08T22:20:37.813Z,5.35
2023-11-08T22:23:05.871Z,5.00
2023-11-08T22:25:33.584Z,4.95
2023-11-08T22:28:01.502Z,5.53
2023-11-08T22:30:28.666Z,5.00
2023-11-08T22:32:55.859Z,5.05
2023-11-08T22:35:23.084Z,5.47
2023-11-08T22:37:50.238Z,5.43
2023-11-08T22:40:18.252Z,4.93
2023-11-08T22:42:45.728Z,5.10
2023-11-08T22:45:12.889Z,5.35
2023-11-08T22:47:43.137Z,5.22
2023-11-08T22:50:12.121Z,5.53
2023-11-08T22:52:40.036Z,4.72
2023-11-08T22:55:10.313Z,5.03
2023-11-08T22:57:37.429Z,5.53
2023-11-08T23:00:15.682Z,5.07
2023-11-08T23:02:43.622Z,5.10
2023-11-08T23:05:11.322Z,4.93
2023-11-08T23:07:38.938Z,5.18
2023-11-08T23:10:06.718Z,5.15
2023-11-08T23:12:33.862Z,5.45
2023-11-08T23:15:07.571Z,4.53
2023-11-08T23:17:45.888Z,4.95
2023-11-08T23:20:15.854Z,5.10
2023-11-08T23:22:44.728Z,5.18
2023-11-08T23:25:12.014Z,4.85
2023-11-08T23:27:39.998Z,4.82
2023-11-08T23:30:07.782Z,5.13
2023-11-08T23:32:35.629Z,4.85
2023-11-08T23:35:02.866Z,5.28
2023-11-08T23:37:31.581Z,5.13
2023-11-08T23:39:59.592Z,5.20
2023-11-08T23:42:26.819Z,4.53
2023-11-08T23:44:53.999Z,4.55
2023-11-08T23:47:21.419Z,5.35
2023-11-08T23:49:48.540Z,4.85
2023-11-08T23:52:15.739Z,4.97
2023-11-08T23:54:43.293Z,4.70
2023-11-08T23:57:11.675Z,4.80
2023-11-08T23:59:39.189Z,5.28
